Terminal Aerodrome Forecast
Issued by NWS

Home | Current Version | Previous Version | Graphics & Text | Print | Product List | Glossary On
Versions: 1 2 3 4 5 6 7 8 9 10 11 12 13 14
000
FTUS43 KFGF 241700
TAFBJI
TAF
KBJI 241725Z 2418/2518 31012G18KT P6SM BKN080
     FM242200 30016KT P6SM FEW250
     FM250300 30006KT P6SM FEW250
     FM251100 34005KT P6SM BKN250=

USA.gov is the U.S. government's official web portal to all federal, state and local government web resources and services.